Airfield :
LOGIN :

Register | Disclaimer

   EN    FR    IT 

 










Legend :    VFR   Marginal VFR   IFR   Intensive IFR   Very Intensive IFR
Visi :
Ceiling :
>= 8 km
>= 3000ft
5 to 8 km
1000 to 3000 ft
1500m to 5 km
500 to 1000 ft
800 to 1500m
200 to 500 ft
< 800m
< 200 ft
Symbols :   Thunderstorms  Fog  Heavy snow  Heavy precipitations  Wind > 20 kt
SIGMETs :     Misc.  Thunderstorms  Icing  Turbulence  Mountain Waves  Volcanic Ashes






- Airport Elevation : 138 ft
- IATA code : RLG


ETNL - Rostock Laage

CURRENT METAR :
  • 072047Z 25009KT 3800 -RADZ BR BKN010 07/07 Q1007 GRN

EXPIRED METARs :
  • 072020Z 24010 7000 -RADZ BKN020 07/05 Q1007 WHT
  • 071920Z 24009 9999 BKN045 BKN120 07/05 Q0007 BLU
  • 071820Z 25014 9999 SCT050 07/05 Q1007 BLU+

TAF TAF ETNL
Valid from the 07 at 18:00 until the 08 at 06:00 UTC


071710Z 0718/0806 25015G25KT 9000 NSW SCT012 BKN030
TEMPO 0718/0806 27020G30KT 4000 SHRA BKN010TCU
PROB30 0800/0806 270012KT 3000 BR BKN005 BY ETGL



MET'MAP, your aeronautical weather chart ! - Copyright ORBIFLY December 2007 - Disclaimer

ORBIFLY MET'MAP TEAM :

Programming & Development : Alexandra Zaïnal
Concept & original design : Baudouin d'Aumeries
Assistance for programming : Marc-Olivier Méhu
Technical & hardware support : Manuel Goepfert

Contact : metmap@orbifly.com




SOURCES & CREDITS :

   NOAA